Santa Cruz de la Sierra, Bolivia
Current Conditions -  °F | °C
As of 7:00 PM on Thursday 27 Nov 2014 (Local Time) from SLET Reporting Station
Broken Clouds Broken Clouds  
Wind Chill: 82°   Ceiling: 20000
Heat Index: 86°   Visibility: 6mi
Dew Point: 70°   Wind: 7mph
Humidity: 66%   Direction: 180°S
Pressure: 29.83"   Gusts: NA
Location:  17.79°S, 63.2°W
Report Text: SLET 272300Z 18006KT 9999 FEW017 FEW030CB BKN200 28/21 Q1010
Loading
Personal Weather Stations






























Interactive Weather Map New forecast layout! Learn more

10-Day Weather Forecast

Advertisements
Track Severe Weather on mobile